Ersov, Russia
Current Conditions -  °F | °C
As of 8:30 PM on Friday 19 Dec 2014 (Local Time) from UWSS Reporting Station
Haze Haze  
Wind Chill: 25°   Ceiling: 400
Heat Index: 30°   Visibility: 1.2mi
Dew Point: 28°   Wind: 4mph
Humidity: 93%   Direction: 180°S
Pressure: 29.94"   Gusts: NA
Location:  51.37°N, 48.3°E
Report Text: UWSS 191730Z 18002MPS 2000 BR OVC004 M01/M02 Q1014 12490339TEMPO 0500 FZFG RMK QFE749
Loading
Personal Weather Stations






























Interactive Weather Map New forecast layout! Learn more

10-Day Weather Forecast

Advertisements
Track Severe Weather on mobile